Time;durP1;ratioP1;P1;durP2;ratioP2;P2;SDS_P1;SDS_P2;PMS_P1;PMS_P2;Temp;Humidity;BMP_temperature;BMP_pressure;BME280_temperature;BME280_humidity;BME280_pressure;Samples;Min_cycle;Max_cycle;Signal;HPM_P1;HPM_P2
2022/08/02 00:02:10;;;;;;;5.03;2.28;;;21.30;92.00;;;;;;5011114;28;20081;-69
2022/08/02 00:04:35;;;;;;;5.78;2.53;;;21.20;92.00;;;;;;5011017;28;20026;-69
2022/08/02 00:07:01;;;;;;;4.43;2.60;;;21.20;92.00;;;;;;5011127;28;20508;-69
2022/08/02 00:09:27;;;;;;;4.75;2.38;;;21.30;92.00;;;;;;5010996;28;20034;-69
2022/08/02 00:11:52;;;;;;;6.22;2.60;;;21.20;92.00;;;;;;5011484;28;20113;-69
2022/08/02 00:14:18;;;;;;;7.03;2.67;;;21.30;92.00;;;;;;5010712;28;20073;-68
2022/08/02 00:16:43;;;;;;;5.00;2.17;;;21.20;91.90;;;;;;5010619;28;20092;-69
2022/08/02 00:19:09;;;;;;;5.38;2.80;;;21.20;91.70;;;;;;5011212;28;20037;-68
2022/08/02 00:21:34;;;;;;;2.65;1.92;;;21.20;91.70;;;;;;5018920;28;20021;-69
2022/08/02 00:24:00;;;;;;;4.22;2.45;;;21.10;91.50;;;;;;5013150;28;20034;-69
2022/08/02 00:26:26;;;;;;;5.22;2.20;;;21.10;91.40;;;;;;5011389;28;20164;-69
2022/08/02 00:28:53;;;;;;;4.40;2.17;;;21.20;91.20;;;;;;5012879;28;20037;-69
2022/08/02 00:31:18;;;;;;;5.18;1.77;;;21.20;91.00;;;;;;5013828;28;20033;-69
2022/08/02 00:33:44;;;;;;;4.38;2.13;;;21.20;90.90;;;;;;5014665;28;20485;-69
2022/08/02 00:36:10;;;;;;;3.47;2.30;;;21.20;90.80;;;;;;5013842;28;20033;-69
2022/08/02 00:38:36;;;;;;;4.07;2.38;;;21.20;90.80;;;;;;5014473;28;20074;-69
2022/08/02 00:41:01;;;;;;;6.90;2.33;;;21.20;90.70;;;;;;5013489;28;20064;-69
2022/08/02 00:43:27;;;;;;;6.13;1.90;;;21.10;90.70;;;;;;5014989;28;20057;-69
2022/08/02 00:45:53;;;;;;;7.75;2.30;;;21.20;90.70;;;;;;5014133;28;20021;-69
2022/08/02 00:48:19;;;;;;;4.80;2.30;;;21.10;90.60;;;;;;5015166;28;20034;-68
2022/08/02 00:50:45;;;;;;;3.33;2.20;;;21.10;90.50;;;;;;5013871;28;20030;-68
2022/08/02 00:53:10;;;;;;;5.75;2.45;;;21.10;90.50;;;;;;5014219;28;20069;-69
2022/08/02 00:55:36;;;;;;;7.05;2.20;;;21.10;90.50;;;;;;5013683;28;20357;-69
2022/08/02 00:58:03;;;;;;;5.32;2.38;;;21.10;90.60;;;;;;5014347;28;20096;-69
2022/08/02 01:00:28;;;;;;;5.90;2.67;;;21.10;90.60;;;;;;5013575;28;20018;-68
2022/08/02 01:02:54;;;;;;;3.75;1.90;;;21.10;90.50;;;;;;5014352;28;20045;-69
2022/08/02 01:05:20;;;;;;;5.60;2.13;;;21.10;90.40;;;;;;5013990;28;20034;-69
2022/08/02 01:07:46;;;;;;;4.75;2.47;;;21.10;90.50;;;;;;5014287;28;20037;-69
2022/08/02 01:10:12;;;;;;;3.80;2.17;;;21.10;90.50;;;;;;5013753;28;20381;-69
2022/08/02 01:12:38;;;;;;;6.50;2.20;;;21.10;90.50;;;;;;5013849;28;20033;-68
2022/08/02 01:15:09;;;;;;;4.22;2.30;;;21.10;90.50;;;;;;5013686;28;20117;-68
2022/08/02 01:18:03;;;;;;;4.13;2.20;;;21.10;90.60;;;;;;5013729;28;20097;-68
2022/08/02 01:20:48;;;;;;;3.65;2.47;;;21.10;90.60;;;;;;5014216;28;20038;-68
2022/08/02 01:23:32;;;;;;;6.93;2.45;;;21.10;90.50;;;;;;5013826;28;20566;-68
2022/08/02 01:25:57;;;;;;;8.57;2.28;;;21.10;90.40;;;;;;5011797;28;20034;-68
2022/08/02 01:28:44;;;;;;;4.50;2.47;;;21.10;90.50;;;;;;5013422;28;20153;-68
2022/08/02 01:31:28;;;;;;;4.90;1.98;;;21.10;90.50;;;;;;5013419;28;20030;-68
2022/08/02 01:34:11;;;;;;;3.97;1.98;;;21.10;90.30;;;;;;5012090;28;20418;-68
2022/08/02 01:36:41;;;;;;;6.65;2.90;;;21.10;90.30;;;;;;5013628;28;20029;-68
2022/08/02 01:39:11;;;;;;;5.13;2.20;;;21.10;90.30;;;;;;5013073;28;20042;-68
2022/08/02 01:41:37;;;;;;;6.07;2.90;;;21.10;90.30;;;;;;5013741;28;20033;-68
2022/08/02 01:44:05;;;;;;;4.60;2.03;;;21.10;90.20;;;;;;5013208;28;20022;-68
2022/08/02 01:46:32;;;;;;;5.22;1.85;;;21.10;90.10;;;;;;5013425;28;20061;-68
2022/08/02 01:49:03;;;;;;;6.10;2.42;;;21.10;90.00;;;;;;5010839;28;20088;-68
2022/08/02 01:54:21;;;;;;;4.65;2.42;;;21.10;89.80;;;;;;5012353;28;20046;-68
2022/08/02 01:56:48;;;;;;;5.35;2.05;;;21.10;89.40;;;;;;5012452;28;20124;-68
2022/08/02 01:59:19;;;;;;;8.38;2.40;;;21.10;89.10;;;;;;5012325;28;20033;-68
2022/08/02 02:01:48;;;;;;;5.05;2.08;;;21.10;89.00;;;;;;5012688;28;20029;-69
2022/08/02 02:04:16;;;;;;;4.15;2.80;;;21.10;88.90;;;;;;5011838;28;20030;-68
2022/08/02 02:06:43;;;;;;;4.93;2.20;;;21.10;88.80;;;;;;5013552;28;20050;-68
2022/08/02 02:09:11;;;;;;;9.38;3.00;;;21.10;89.00;;;;;;5012276;28;20021;-68
2022/08/02 02:11:37;;;;;;;6.13;3.25;;;21.10;88.70;;;;;;5013469;28;20034;-68
2022/08/02 02:14:06;;;;;;;6.03;2.85;;;21.10;88.40;;;;;;5011801;28;20046;-68
2022/08/02 02:16:33;;;;;;;7.78;3.53;;;21.10;88.50;;;;;;5011272;28;20125;-68
2022/08/02 02:19:01;;;;;;;6.32;2.58;;;21.00;88.60;;;;;;5012687;28;20092;-67
2022/08/02 02:21:27;;;;;;;8.13;3.03;;;21.00;88.90;;;;;;5012806;28;20029;-68
2022/08/02 02:23:53;;;;;;;6.20;2.33;;;21.00;89.00;;;;;;5011777;28;20036;-69
2022/08/02 02:26:19;;;;;;;6.53;2.60;;;21.00;89.10;;;;;;5012905;28;20030;-68
2022/08/02 02:28:46;;;;;;;7.05;2.50;;;21.00;89.10;;;;;;5011642;28;20030;-67
2022/08/02 02:31:16;;;;;;;5.90;2.40;;;21.00;89.10;;;;;;5012759;28;20029;-68
2022/08/02 02:33:55;;;;;;;8.25;2.38;;;20.90;89.10;;;;;;5012444;28;20045;-68
2022/08/02 02:36:22;;;;;;;4.60;1.98;;;20.90;88.90;;;;;;5008842;28;20025;-67
2022/08/02 02:38:51;;;;;;;5.78;2.40;;;20.90;88.60;;;;;;5012141;28;20026;-67
2022/08/02 02:41:19;;;;;;;7.78;2.58;;;20.80;88.30;;;;;;5012124;28;20038;-67
2022/08/02 02:43:46;;;;;;;6.97;3.15;;;20.80;88.20;;;;;;5011740;28;20037;-68
2022/08/02 02:46:15;;;;;;;3.97;2.17;;;20.80;88.00;;;;;;5011801;28;20040;-68
2022/08/02 02:48:41;;;;;;;12.70;2.45;;;20.80;87.80;;;;;;5005088;28;20037;-67
2022/08/02 02:51:09;;;;;;;5.57;2.60;;;20.70;87.80;;;;;;5011023;28;20029;-67
2022/08/02 02:53:36;;;;;;;7.65;2.95;;;20.80;87.60;;;;;;5010720;28;20527;-68
2022/08/02 02:56:02;;;;;;;7.75;2.78;;;20.80;87.00;;;;;;5012203;28;20034;-66
2022/08/02 02:58:29;;;;;;;6.28;2.45;;;20.80;86.00;;;;;;5010509;28;20444;-67
2022/08/02 03:03:45;;;;;;;7.03;2.60;;;20.70;85.70;;;;;;5011375;28;20030;-67
2022/08/02 03:06:12;;;;;;;4.13;1.90;;;20.70;85.40;;;;;;5011582;28;20078;-67
2022/08/02 03:08:37;;;;;;;5.40;1.98;;;20.60;84.30;;;;;;5011196;28;20382;-68
2022/08/02 03:11:03;;;;;;;5.03;2.22;;;20.60;83.30;;;;;;5011867;28;20030;-68
2022/08/02 03:13:30;;;;;;;4.10;1.88;;;20.60;83.20;;;;;;5011549;28;20375;-69
2022/08/02 03:15:56;;;;;;;5.00;2.00;;;20.60;83.00;;;;;;5011434;28;20401;-68
2022/08/02 03:18:36;;;;;;;5.38;2.10;;;20.60;82.70;;;;;;5011302;28;20030;-68
2022/08/02 03:21:05;;;;;;;4.43;1.90;;;20.60;82.40;;;;;;5011583;28;20047;-68
2022/08/02 03:23:31;;;;;;;5.90;2.63;;;20.60;81.90;;;;;;5011427;28;20034;-68
2022/08/02 03:25:58;;;;;;;5.22;2.20;;;20.50;80.60;;;;;;5011741;28;20452;-68
2022/08/02 03:28:23;;;;;;;3.78;2.17;;;20.40;80.40;;;;;;5010637;28;20485;-68
2022/08/02 03:30:50;;;;;;;9.93;3.13;;;20.50;80.10;;;;;;5011232;28;20064;-68
2022/08/02 03:33:17;;;;;;;3.95;2.03;;;20.40;80.00;;;;;;5011369;28;20030;-68
2022/08/02 03:35:46;;;;;;;6.32;2.20;;;20.40;80.20;;;;;;5011503;28;20037;-68
2022/08/02 03:38:14;;;;;;;5.63;2.20;;;20.30;80.20;;;;;;5011551;28;20056;-68
2022/08/02 03:40:42;;;;;;;6.70;2.30;;;20.40;80.00;;;;;;5011721;28;20030;-68
2022/08/02 03:43:08;;;;;;;4.97;2.00;;;20.30;80.10;;;;;;5011095;28;20555;-68
2022/08/02 03:45:37;;;;;;;3.80;1.92;;;20.30;80.40;;;;;;5011435;28;20034;-68
2022/08/02 03:48:03;;;;;;;8.20;2.72;;;20.30;80.30;;;;;;5011450;28;20079;-66
2022/08/02 03:50:31;;;;;;;5.47;2.22;;;20.30;80.60;;;;;;5010989;28;20080;-68
2022/08/02 03:52:58;;;;;;;6.85;2.42;;;20.30;80.70;;;;;;5011065;28;20052;-68
2022/08/02 03:55:24;;;;;;;7.40;2.13;;;20.30;80.90;;;;;;5011489;28;20029;-67
2022/08/02 03:57:50;;;;;;;5.07;2.08;;;20.20;81.20;;;;;;5011167;28;20128;-68
2022/08/02 04:00:21;;;;;;;5.40;2.30;;;20.20;81.30;;;;;;5011061;28;20041;-67
2022/08/02 04:02:47;;;;;;;6.25;2.42;;;20.20;81.70;;;;;;5011643;28;20088;-68
2022/08/02 04:05:13;;;;;;;9.50;2.45;;;20.20;81.60;;;;;;5015123;28;20066;-68
2022/08/02 04:07:39;;;;;;;3.97;2.22;;;20.20;81.90;;;;;;5015322;28;20543;-68
2022/08/02 04:10:05;;;;;;;4.35;1.88;;;20.10;81.90;;;;;;5015197;28;20037;-68
2022/08/02 04:12:32;;;;;;;5.45;2.70;;;20.20;82.00;;;;;;5015162;28;20418;-68
2022/08/02 04:14:59;;;;;;;4.32;2.33;;;20.10;82.00;;;;;;5015165;28;20036;-68
2022/08/02 04:17:26;;;;;;;4.75;2.20;;;20.20;81.90;;;;;;5015079;28;20080;-68
2022/08/02 04:20:32;;;;;;;6.20;2.20;;;20.20;81.80;;;;;;5014898;28;20044;-68
2022/08/02 04:23:05;;;;;;;8.73;2.45;;;20.20;81.90;;;;;;5014576;28;20038;-68
2022/08/02 04:25:32;;;;;;;5.47;2.60;;;20.30;82.00;;;;;;5011016;28;20034;-69
2022/08/02 04:28:00;;;;;;;6.50;2.75;;;20.30;82.50;;;;;;5013852;28;20030;-68
2022/08/02 04:30:26;;;;;;;7.30;2.58;;;20.30;82.80;;;;;;5015126;28;20152;-68
2022/08/02 04:32:53;;;;;;;6.53;2.80;;;20.30;82.60;;;;;;5013155;28;20041;-68
2022/08/02 04:35:19;;;;;;;3.55;1.98;;;20.40;81.70;;;;;;5012228;28;20053;-68
2022/08/02 04:37:45;;;;;;;4.50;2.10;;;20.40;81.90;;;;;;5013898;28;20021;-68
2022/08/02 04:40:11;;;;;;;4.53;1.90;;;20.40;81.80;;;;;;5014774;28;20367;-68
2022/08/02 04:42:38;;;;;;;10.63;3.38;;;20.40;81.40;;;;;;5014496;28;20500;-68
2022/08/02 04:45:06;;;;;;;9.95;2.45;;;20.50;81.10;;;;;;5014763;28;20157;-68
2022/08/02 04:47:33;;;;;;;8.98;2.50;;;20.50;81.00;;;;;;5014012;28;20292;-68
2022/08/02 04:49:59;;;;;;;5.90;2.47;;;20.50;80.80;;;;;;5014616;28;20099;-68
2022/08/02 04:52:24;;;;;;;6.97;2.33;;;20.50;80.80;;;;;;5014162;28;20042;-67
2022/08/02 04:54:50;;;;;;;8.48;2.65;;;20.50;81.00;;;;;;5014160;28;20030;-67
2022/08/02 05:00:02;;;;;;;7.13;2.53;;;20.60;80.90;;;;;;5014090;28;20032;-68
2022/08/02 05:02:28;;;;;;;6.63;2.40;;;20.60;80.40;;;;;;5014198;28;20382;-68
2022/08/02 05:04:53;;;;;;;5.90;2.50;;;20.60;80.70;;;;;;5013800;28;20044;-68
2022/08/02 05:07:19;;;;;;;10.45;3.38;;;20.60;80.50;;;;;;5013406;28;20598;-68
2022/08/02 05:09:44;;;;;;;7.38;2.97;;;20.60;80.50;;;;;;5014152;28;20473;-67
2022/08/02 05:12:10;;;;;;;11.43;2.40;;;20.70;81.10;;;;;;5013554;28;20029;-64
2022/08/02 05:14:36;;;;;;;3.83;1.83;;;20.70;80.50;;;;;;5013072;28;20046;-69
2022/08/02 05:17:01;;;;;;;5.10;2.22;;;20.70;79.90;;;;;;5012575;28;20032;-69
2022/08/02 05:19:27;;;;;;;6.65;2.20;;;20.70;79.70;;;;;;5013291;28;20030;-69
2022/08/02 05:21:52;;;;;;;7.05;2.10;;;20.80;79.80;;;;;;5013261;28;20022;-68
2022/08/02 05:24:18;;;;;;;3.00;1.90;;;20.80;79.40;;;;;;5009628;28;20053;-68
2022/08/02 05:26:43;;;;;;;5.53;2.28;;;20.80;79.70;;;;;;5005270;28;20056;-68
2022/08/02 05:29:09;;;;;;;6.50;2.33;;;20.90;79.70;;;;;;5013732;28;20029;-68
2022/08/02 05:31:35;;;;;;;6.90;2.33;;;20.90;79.80;;;;;;5013628;28;20030;-68
2022/08/02 05:34:01;;;;;;;6.15;2.33;;;20.90;80.40;;;;;;5012720;28;20030;-69
2022/08/02 05:36:26;;;;;;;8.27;2.80;;;21.00;81.00;;;;;;5013282;28;20045;-69
2022/08/02 05:38:52;;;;;;;9.32;2.10;;;21.00;81.10;;;;;;5013141;28;20038;-69
2022/08/02 05:41:19;;;;;;;6.60;2.20;;;21.00;81.50;;;;;;5013610;28;20033;-68
2022/08/02 05:43:45;;;;;;;6.45;2.30;;;21.00;81.80;;;;;;5012884;28;20113;-68
2022/08/02 05:46:11;;;;;;;8.75;2.78;;;21.00;81.90;;;;;;5024861;28;20458;-68
2022/08/02 05:48:37;;;;;;;5.75;2.38;;;21.10;81.80;;;;;;5012448;28;20026;-68
2022/08/02 05:51:09;;;;;;;7.95;2.20;;;21.10;81.10;;;;;;5012820;28;20488;-68
2022/08/02 05:53:38;;;;;;;8.27;2.58;;;21.10;81.70;;;;;;5012929;28;20041;-67
2022/08/02 05:56:22;;;;;;;5.38;2.92;;;21.10;81.30;;;;;;5008794;28;20788;-67
2022/08/02 05:58:48;;;;;;;;;;;21.10;81.10;;;;;;5012071;28;20033;-67
2022/08/02 06:01:18;;;;;;;5.55;2.10;;;21.10;81.10;;;;;;5012208;28;19917;-67
2022/08/02 06:03:50;;;;;;;5.60;2.20;;;21.20;80.80;;;;;;5012886;28;20029;-67
2022/08/02 06:06:22;;;;;;;11.90;2.40;;;21.20;81.50;;;;;;5011431;28;20378;-68
2022/08/02 06:08:54;;;;;;;7.88;2.92;;;21.20;81.80;;;;;;5012933;28;20056;-67
2022/08/02 06:11:29;;;;;;;6.97;2.30;;;21.30;82.10;;;;;;5012264;28;20038;-67
2022/08/02 06:13:55;;;;;;;12.10;3.63;;;21.30;82.00;;;;;;5007608;28;20068;-69
2022/08/02 06:16:22;;;;;;;6.05;2.63;;;21.40;82.30;;;;;;5009327;28;20026;-66
2022/08/02 06:18:48;;;;;;;7.15;2.85;;;21.40;82.00;;;;;;5012808;28;20422;-73
2022/08/02 06:21:15;;;;;;;5.38;2.53;;;21.50;81.70;;;;;;5012248;28;20037;-73
2022/08/02 06:23:42;;;;;;;5.85;2.45;;;21.50;82.10;;;;;;5014544;28;20041;-71
2022/08/02 06:26:13;;;;;;;7.85;2.88;;;21.60;80.90;;;;;;5012661;28;20022;-71
2022/08/02 06:28:40;;;;;;;7.13;2.30;;;21.50;82.20;;;;;;5003922;28;20469;-71
2022/08/02 06:31:06;;;;;;;5.38;2.08;;;21.60;81.60;;;;;;5011663;28;20035;-70
2022/08/02 06:33:32;;;;;;;7.78;3.38;;;21.70;81.40;;;;;;5006712;28;20042;-71
2022/08/02 06:36:20;;;;;;;5.38;2.58;;;21.70;82.00;;;;;;5011988;28;20470;-71
2022/08/02 06:39:10;;;;;;;5.10;2.38;;;21.80;81.70;;;;;;5013504;28;20038;-71
2022/08/02 06:41:41;;;;;;;4.22;2.25;;;21.90;81.80;;;;;;5029880;28;20104;-71
2022/08/02 06:44:07;;;;;;;7.93;2.22;;;21.90;80.80;;;;;;5012798;28;20041;-71
2022/08/02 06:46:33;;;;;;;4.97;2.17;;;22.00;81.20;;;;;;5012738;28;20029;-71
2022/08/02 06:49:00;;;;;;;5.15;2.08;;;22.00;81.10;;;;;;5012035;28;20053;-71
2022/08/02 06:51:28;;;;;;;4.70;2.42;;;22.00;80.70;;;;;;5006921;28;20037;-71
2022/08/02 06:53:54;;;;;;;7.65;2.70;;;22.10;81.40;;;;;;5010078;28;20065;-71
2022/08/02 06:56:20;;;;;;;8.48;2.95;;;22.20;81.30;;;;;;5012596;28;20018;-71
2022/08/02 06:58:45;;;;;;;3.90;2.30;;;22.20;80.60;;;;;;5006965;28;20026;-71
2022/08/02 07:01:11;;;;;;;10.25;3.08;;;22.30;80.90;;;;;;5011864;28;20152;-69
2022/08/02 07:03:39;;;;;;;5.03;2.13;;;22.30;79.00;;;;;;5010623;28;20041;-74
2022/08/02 07:06:09;;;;;;;5.57;2.00;;;22.30;79.60;;;;;;5009395;28;20057;-73
2022/08/02 07:08:37;;;;;;;6.00;2.55;;;22.40;79.80;;;;;;5011517;28;20484;-70
2022/08/02 07:11:04;;;;;;;9.05;3.00;;;22.40;79.60;;;;;;5012232;28;20042;-71
2022/08/02 07:13:29;;;;;;;6.05;2.50;;;22.50;80.00;;;;;;5012480;28;20030;-70
2022/08/02 07:15:55;;;;;;;8.57;3.17;;;22.60;79.70;;;;;;5011821;28;20504;-70
2022/08/02 07:18:24;;;;;;;6.63;2.72;;;22.60;79.70;;;;;;5011638;28;20053;-69
2022/08/02 07:20:51;;;;;;;6.78;2.92;;;22.70;80.10;;;;;;5010267;28;20473;-72
2022/08/02 07:23:18;;;;;;;5.75;3.00;;;22.70;79.50;;;;;;5011891;28;20030;-69
2022/08/02 07:25:45;;;;;;;6.10;2.58;;;22.70;79.30;;;;;;5012987;28;20084;-70
2022/08/02 07:28:11;;;;;;;7.80;2.55;;;22.80;79.20;;;;;;5012638;28;20121;-71
2022/08/02 07:30:37;;;;;;;4.65;2.22;;;22.80;78.80;;;;;;5010857;28;20058;-70
2022/08/02 07:33:04;;;;;;;3.92;2.17;;;22.90;79.10;;;;;;5006047;28;20045;-72
2022/08/02 07:35:30;;;;;;;5.63;2.70;;;22.90;78.70;;;;;;5011572;28;20022;-71
2022/08/02 07:37:56;;;;;;;7.35;2.63;;;23.00;78.40;;;;;;5010952;28;20028;-71
2022/08/02 07:40:22;;;;;;;5.13;2.00;;;23.00;78.00;;;;;;5010603;28;20064;-71
2022/08/02 07:42:51;;;;;;;7.85;2.65;;;23.00;78.00;;;;;;5010131;28;20026;-71
2022/08/02 07:45:18;;;;;;;9.35;2.70;;;23.00;76.80;;;;;;5011451;28;20109;-71
2022/08/02 07:47:45;;;;;;;8.15;2.60;;;23.00;77.50;;;;;;5010968;28;20041;-71
2022/08/02 07:50:11;;;;;;;6.10;2.50;;;23.00;76.40;;;;;;5011061;28;20382;-71
2022/08/02 07:52:37;;;;;;;7.28;2.88;;;23.00;76.90;;;;;;5010827;28;20057;-71
2022/08/02 07:55:04;;;;;;;7.32;2.30;;;23.00;76.70;;;;;;5022046;28;20431;-71
2022/08/02 07:57:30;;;;;;;4.38;2.25;;;23.00;76.60;;;;;;5001735;28;20053;-71
2022/08/02 07:59:56;;;;;;;6.32;2.42;;;23.10;76.40;;;;;;5011040;28;20034;-69
2022/08/02 08:02:25;;;;;;;5.25;2.42;;;23.10;76.10;;;;;;5010598;28;20096;-71
2022/08/02 08:04:51;;;;;;;4.75;2.03;;;23.10;75.60;;;;;;5004176;28;20478;-70
2022/08/02 08:07:17;;;;;;;6.45;2.30;;;23.10;76.00;;;;;;5013863;28;20034;-70
2022/08/02 08:09:43;;;;;;;6.35;2.10;;;23.10;75.60;;;;;;4994106;28;20107;-69
2022/08/02 08:12:10;;;;;;;5.28;2.22;;;23.20;75.40;;;;;;5013283;28;20034;-71
2022/08/02 08:14:37;;;;;;;7.00;2.20;;;23.20;75.50;;;;;;5011727;28;20080;-71
2022/08/02 08:17:04;;;;;;;7.32;2.08;;;23.20;74.00;;;;;;5011863;28;20021;-70
2022/08/02 08:19:30;;;;;;;5.97;1.88;;;23.20;74.10;;;;;;5011365;28;20381;-70
2022/08/02 08:21:58;;;;;;;5.90;2.10;;;23.30;74.00;;;;;;5013906;28;20029;-70
2022/08/02 08:24:24;;;;;;;9.02;2.55;;;23.30;73.80;;;;;;5004854;28;20030;-70
2022/08/02 08:26:49;;;;;;;4.78;2.50;;;23.30;73.90;;;;;;5016296;28;20394;-71
2022/08/02 08:29:15;;;;;;;10.50;2.70;;;23.40;74.20;;;;;;5024106;28;20029;-71
2022/08/02 08:31:41;;;;;;;6.13;1.98;;;23.40;73.80;;;;;;5017154;28;20030;-70
2022/08/02 08:34:06;;;;;;;4.93;1.85;;;23.40;73.60;;;;;;5013974;28;20037;-69
2022/08/02 08:36:32;;;;;;;4.40;1.92;;;23.50;73.10;;;;;;5011081;28;20089;-71
2022/08/02 08:38:57;;;;;;;6.70;2.13;;;23.50;72.80;;;;;;5013527;28;20049;-70
2022/08/02 08:41:23;;;;;;;6.30;2.22;;;23.50;72.20;;;;;;5017895;28;20072;-71
2022/08/02 08:43:49;;;;;;;2.80;1.85;;;23.50;72.90;;;;;;5006240;28;20068;-71
2022/08/02 08:46:24;;;;;;;8.65;2.58;;;23.60;73.40;;;;;;5011813;28;20022;-70
2022/08/02 08:48:57;;;;;;;6.70;2.15;;;23.60;73.10;;;;;;5001460;28;20048;-71
2022/08/02 08:51:26;;;;;;;5.22;2.30;;;23.70;72.90;;;;;;5013669;28;20026;-70
2022/08/02 08:53:55;;;;;;;6.22;1.80;;;23.80;72.20;;;;;;5014294;28;20106;-70
2022/08/02 08:56:22;;;;;;;3.53;1.90;;;23.80;72.60;;;;;;5009612;28;20198;-70
2022/08/02 08:58:47;;;;;;;5.82;1.92;;;23.90;71.40;;;;;;5004298;28;20064;-71
2022/08/02 09:01:15;;;;;;;5.18;1.83;;;23.90;71.40;;;;;;5010126;28;20029;-71
2022/08/02 09:03:43;;;;;;;3.85;1.98;;;24.00;71.60;;;;;;5002415;28;20140;-71
2022/08/02 09:06:09;;;;;;;6.55;2.45;;;24.00;71.00;;;;;;5002364;28;20509;-71
2022/08/02 09:08:34;;;;;;;4.55;2.13;;;24.00;70.90;;;;;;5008570;28;20030;-73
2022/08/02 09:11:00;;;;;;;4.00;2.00;;;24.10;70.90;;;;;;5014498;28;20470;-71
2022/08/02 09:13:30;;;;;;;6.60;2.50;;;24.10;70.70;;;;;;5015359;28;20080;-72
2022/08/02 09:16:02;;;;;;;2.55;1.58;;;24.20;70.70;;;;;;5013714;28;20109;-72
2022/08/02 09:18:38;;;;;;;4.43;2.20;;;24.20;71.50;;;;;;5013719;28;20026;-72
2022/08/02 09:21:07;;;;;;;5.10;1.90;;;24.30;70.60;;;;;;4995972;28;20034;-72
2022/08/02 09:23:38;;;;;;;5.18;1.60;;;24.30;70.00;;;;;;5010544;28;20489;-72
2022/08/02 09:26:19;;;;;;;3.92;1.92;;;24.40;70.10;;;;;;5005529;28;20061;-72
2022/08/02 09:28:48;;;;;;;6.47;2.00;;;24.50;70.50;;;;;;5002223;28;20025;-73
2022/08/02 09:31:15;;;;;;;3.15;1.60;;;24.50;70.40;;;;;;4997306;28;20029;-73
2022/08/02 09:33:44;;;;;;;4.03;1.83;;;24.70;70.80;;;;;;5008833;28;20397;-73
2022/08/02 09:36:13;;;;;;;6.07;2.08;;;24.70;71.00;;;;;;5013604;28;20481;-73
2022/08/02 09:38:40;;;;;;;3.25;1.63;;;24.80;70.30;;;;;;5010557;28;20029;-72
2022/08/02 09:41:22;;;;;;;3.65;1.70;;;24.90;70.10;;;;;;5002193;28;20118;-72
2022/08/02 09:43:47;;;;;;;3.78;1.90;;;25.00;69.10;;;;;;5004281;28;20030;-73
2022/08/02 09:46:22;;;;;;;8.55;2.00;;;25.10;69.70;;;;;;5006702;28;20428;-73
2022/08/02 09:48:47;;;;;;;3.13;1.58;;;25.10;69.10;;;;;;5012182;28;20438;-73
2022/08/02 09:51:18;;;;;;;2.95;1.50;;;25.20;68.80;;;;;;5013260;28;20137;-73
2022/08/02 09:53:43;;;;;;;3.78;1.80;;;25.30;68.40;;;;;;5013466;28;20037;-72
2022/08/02 09:56:09;;;;;;;2.95;1.85;;;25.30;67.70;;;;;;5009783;28;20022;-72
2022/08/02 09:58:38;;;;;;;3.28;1.80;;;25.30;67.80;;;;;;5008356;28;20473;-73
2022/08/02 10:01:04;;;;;;;2.83;1.30;;;25.30;67.40;;;;;;5007947;28;20401;-72
2022/08/02 10:03:30;;;;;;;2.35;1.50;;;25.30;67.20;;;;;;5004028;28;20030;-72
2022/08/02 10:05:57;;;;;;;4.78;1.75;;;25.40;66.70;;;;;;5012858;28;20091;-72
2022/08/02 10:08:24;;;;;;;4.43;1.60;;;25.30;66.20;;;;;;5012191;28;20381;-71
2022/08/02 10:10:59;;;;;;;2.58;1.63;;;25.40;66.70;;;;;;5007093;28;20394;-71
2022/08/02 10:13:27;;;;;;;4.85;2.13;;;25.40;66.90;;;;;;4997709;28;20386;-72
2022/08/02 10:15:54;;;;;;;4.43;1.65;;;25.50;66.80;;;;;;5014990;28;20045;-71
2022/08/02 10:18:20;;;;;;;3.65;1.52;;;25.50;66.80;;;;;;5005852;28;20133;-73
2022/08/02 10:20:48;;;;;;;3.85;1.50;;;25.60;66.60;;;;;;4999267;28;20121;-72
2022/08/02 10:23:15;;;;;;;2.90;1.63;;;25.70;66.00;;;;;;5012069;28;20048;-72
2022/08/02 10:25:44;;;;;;;4.10;1.70;;;25.80;66.50;;;;;;5011451;28;20030;-76
2022/08/02 10:28:14;;;;;;;3.20;1.65;;;25.80;65.90;;;;;;5012139;28;20088;-76
2022/08/02 10:30:43;;;;;;;2.72;1.60;;;25.80;66.20;;;;;;5012366;28;20548;-73
2022/08/02 10:33:11;;;;;;;4.22;1.85;;;25.90;66.20;;;;;;5012124;28;20458;-74
2022/08/02 10:35:39;;;;;;;4.90;1.85;;;25.90;65.20;;;;;;5005089;28;20033;-74
2022/08/02 10:38:09;;;;;;;3.75;1.90;;;26.00;65.40;;;;;;5012875;28;20041;-74
2022/08/02 10:40:44;;;;;;;4.55;1.83;;;26.00;65.00;;;;;;5000459;28;20030;-74
2022/08/02 10:43:10;;;;;;;2.17;1.58;;;26.00;64.80;;;;;;5010397;28;20044;-75
2022/08/02 10:45:36;;;;;;;3.10;1.60;;;26.10;64.10;;;;;;5026947;28;20409;-72
2022/08/02 10:48:10;;;;;;;3.83;1.70;;;26.10;64.30;;;;;;5012436;28;20037;-73
2022/08/02 10:50:48;;;;;;;;;;;26.10;63.60;;;;;;5012316;28;20388;-74
2022/08/02 10:53:30;;;;;;;5.18;1.60;;;26.10;64.70;;;;;;5011282;28;20328;-75
2022/08/02 10:56:04;;;;;;;4.25;1.73;;;26.20;65.20;;;;;;5011593;28;20396;-74
2022/08/02 10:58:32;;;;;;;4.72;1.73;;;26.20;65.20;;;;;;5012167;28;20461;-73
2022/08/02 11:01:04;;;;;;;4.88;1.90;;;26.30;64.70;;;;;;5012050;28;20429;-76
2022/08/02 11:03:30;;;;;;;7.55;1.50;;;26.40;65.10;;;;;;5011103;28;20108;-74
2022/08/02 11:06:06;;;;;;;6.80;1.98;;;26.40;64.70;;;;;;5012180;28;20489;-76
2022/08/02 11:08:32;;;;;;;3.22;1.80;;;26.60;64.20;;;;;;4999559;28;20022;-70
2022/08/02 11:11:00;;;;;;;2.70;1.48;;;26.50;63.70;;;;;;5011179;28;20485;-70
2022/08/02 11:13:26;;;;;;;4.05;1.75;;;26.60;64.00;;;;;;5010647;28;20042;-70
2022/08/02 11:16:04;;;;;;;3.70;1.60;;;26.60;63.80;;;;;;5011721;28;20030;-71
2022/08/02 11:18:48;;;;;;;3.05;1.60;;;26.70;63.70;;;;;;5011720;28;20026;-69
2022/08/02 11:21:22;;;;;;;2.85;1.67;;;26.70;63.30;;;;;;5012111;28;20400;-70
2022/08/02 11:23:47;;;;;;;4.45;1.48;;;26.70;62.90;;;;;;5011661;28;20484;-71
2022/08/02 11:26:31;;;;;;;3.95;1.80;;;26.70;62.90;;;;;;5011618;28;20045;-69
2022/08/02 11:29:00;;;;;;;5.97;2.03;;;26.70;63.40;;;;;;5011289;28;20033;-69
2022/08/02 11:31:26;;;;;;;4.30;2.08;;;26.70;63.20;;;;;;5010939;28;20034;-69
2022/08/02 11:33:53;;;;;;;3.95;1.98;;;26.80;63.50;;;;;;5011103;28;20049;-69
2022/08/02 11:36:18;;;;;;;5.63;1.65;;;26.80;63.10;;;;;;5011243;28;20535;-70
2022/08/02 11:38:44;;;;;;;4.78;1.77;;;26.80;62.30;;;;;;5006029;28;20030;-70
2022/08/02 11:41:21;;;;;;;3.60;1.80;;;26.70;61.50;;;;;;4996887;28;20137;-72
2022/08/02 11:43:53;;;;;;;3.35;2.35;;;26.70;61.50;;;;;;5010947;28;20485;-69
2022/08/02 11:46:20;;;;;;;3.25;1.65;;;26.70;61.30;;;;;;5011146;28;20049;-70
2022/08/02 11:48:46;;;;;;;4.47;2.03;;;26.80;61.50;;;;;;5011407;28;20118;-70
2022/08/02 11:51:14;;;;;;;7.18;4.10;;;26.80;60.80;;;;;;5011709;28;20113;-70
2022/08/02 11:53:52;;;;;;;8.93;3.67;;;26.80;61.50;;;;;;5011150;28;20042;-70
2022/08/02 11:56:26;;;;;;;5.50;3.08;;;26.70;61.40;;;;;;5011610;28;20022;-69
2022/08/02 11:59:09;;;;;;;3.20;1.77;;;26.70;61.50;;;;;;5007757;28;20164;-70
2022/08/02 12:01:36;;;;;;;3.08;1.58;;;26.70;60.40;;;;;;5000980;28;20096;-69
2022/08/02 12:04:04;;;;;;;4.25;1.95;;;26.70;59.70;;;;;;5006792;28;20092;-69
2022/08/02 12:06:31;;;;;;;4.38;1.83;;;26.70;60.50;;;;;;5005011;28;20486;-70
2022/08/02 12:09:08;;;;;;;5.93;1.70;;;26.70;60.00;;;;;;5010560;28;20037;-69
2022/08/02 12:11:37;;;;;;;5.68;2.55;;;26.70;60.20;;;;;;4995666;28;20022;-69
2022/08/02 12:14:04;;;;;;;5.85;1.70;;;26.70;59.90;;;;;;5009847;28;20034;-69
2022/08/02 12:19:22;;;;;;;3.72;1.77;;;26.80;59.70;;;;;;4998593;28;20128;-69
2022/08/02 12:22:09;;;;;;;3.58;2.03;;;26.80;59.50;;;;;;5005619;28;20034;-69
2022/08/02 12:24:35;;;;;;;4.80;2.03;;;26.90;60.10;;;;;;5011530;28;20029;-69
2022/08/02 12:27:01;;;;;;;3.88;1.90;;;27.00;60.10;;;;;;5014812;28;20038;-69
2022/08/02 12:29:34;;;;;;;3.20;1.80;;;27.10;59.80;;;;;;5011877;28;20053;-69
2022/08/02 12:32:00;;;;;;;6.00;1.83;;;27.10;59.10;;;;;;5005908;28;20362;-70
2022/08/02 12:34:27;;;;;;;2.47;1.40;;;27.10;59.10;;;;;;5013591;28;20124;-70
2022/08/02 12:37:02;;;;;;;3.65;2.13;;;27.20;58.60;;;;;;5014368;28;20473;-70
2022/08/02 12:39:40;;;;;;;3.17;1.80;;;27.20;58.80;;;;;;5014836;28;20037;-71
2022/08/02 12:42:08;;;;;;;3.53;1.58;;;27.30;57.60;;;;;;5014352;28;20058;-69
2022/08/02 12:44:37;;;;;;;4.28;1.70;;;27.30;57.40;;;;;;5013789;28;20523;-68
2022/08/02 12:47:10;;;;;;;3.65;1.40;;;27.40;57.40;;;;;;5014491;28;20036;-70
2022/08/02 12:49:36;;;;;;;2.58;1.52;;;27.40;56.70;;;;;;5000877;28;20378;-70
2022/08/02 12:52:21;;;;;;;2.72;1.52;;;27.50;56.40;;;;;;5002023;28;20481;-70
2022/08/02 12:54:47;;;;;;;6.50;2.00;;;27.60;56.90;;;;;;5012591;28;20073;-70
2022/08/02 12:57:18;;;;;;;5.50;2.40;;;27.60;56.60;;;;;;5014337;28;20061;-69
2022/08/02 12:59:51;;;;;;;3.58;2.15;;;27.70;56.80;;;;;;5013027;28;20065;-72
2022/08/02 13:02:17;;;;;;;5.00;1.60;;;27.80;56.50;;;;;;5013588;28;20022;-72
2022/08/02 13:04:43;;;;;;;5.95;2.10;;;27.90;55.70;;;;;;5013848;28;20056;-69
2022/08/02 13:07:09;;;;;;;4.22;1.95;;;28.00;55.50;;;;;;5005530;28;20026;-72